Time;durP1;ratioP1;P1;durP2;ratioP2;P2;SDS_P1;SDS_P2;PMS_P1;PMS_P2;Temp;Humidity;BMP_temperature;BMP_pressure;BME280_temperature;BME280_humidity;BME280_pressure;Samples;Min_cycle;Max_cycle;Signal;HPM_P1;HPM_P2
2022/07/10 00:01:23;;;;;;;;;;;;;;;16.93;62.71;96895.72;6298643;28;19924;-66
2022/07/10 00:04:27;;;;;;;;;;;;;;;16.88;62.46;96895.31;6298586;28;20394;-63
2022/07/10 00:07:31;;;;;;;;;;;;;;;16.84;62.64;96892.06;6298514;28;19924;-64
2022/07/10 00:10:36;;;;;;;;;;;;;;;16.83;62.34;96893.06;6298370;28;19924;-65
2022/07/10 00:13:39;;;;;;;;;;;;;;;16.83;62.77;96893.06;6298210;28;19924;-64
2022/07/10 00:16:43;;;;;;;;;;;;;;;16.85;62.19;96888.44;6297845;28;19925;-64
2022/07/10 00:19:47;;;;;;;;;;;;;;;16.86;61.97;96886.63;6297846;28;19925;-65
2022/07/10 00:22:51;;;;;;;;;;;;;;;16.86;62.12;96890.13;6298089;28;19925;-65
2022/07/10 00:25:54;;;;;;;;;;;;;;;16.90;61.90;96886.22;6297955;28;19925;-65
2022/07/10 00:28:58;;;;;;;;;;;;;;;16.94;61.91;96895.59;6297935;28;19924;-65
2022/07/10 00:32:02;;;;;;;;;;;;;;;17.02;61.43;96887.75;6297987;28;19924;-64
2022/07/10 00:35:06;;;;;;;;;;;;;;;17.03;61.43;96885.94;6297413;28;19928;-64
2022/07/10 00:38:09;;;;;;;;;;;;;;;17.06;61.37;96883.84;6297628;28;20309;-64
2022/07/10 00:41:12;;;;;;;;;;;;;;;17.08;60.99;96882.88;6297551;28;19925;-65
2022/07/10 00:44:16;;;;;;;;;;;;;;;17.09;61.04;96889.84;6297386;28;20025;-65
2022/07/10 00:47:20;;;;;;;;;;;;;;;17.10;60.82;96886.22;6297558;28;19925;-65
2022/07/10 00:50:23;;;;;;;;;;;;;;;17.13;61.05;96891.28;6296102;28;19986;-65
2022/07/10 00:53:27;;;;;;;;;;;;;;;17.16;60.82;96889.16;6297263;28;19925;-65
2022/07/10 00:56:30;;;;;;;;;;;;;;;17.20;60.72;96897.69;6297299;28;19924;-65
2022/07/10 00:59:35;;;;;;;;;;;;;;;17.24;60.71;96904.44;6297346;28;20070;-64
2022/07/10 01:02:43;;;;;;;;;;;;;;;17.36;60.00;96902.47;6297117;28;19925;-64
2022/07/10 01:05:47;;;;;;;;;;;;;;;17.41;60.30;96906.38;6296885;28;19925;-64
2022/07/10 01:08:51;;;;;;;;;;;;;;;17.46;60.10;96898.78;6296727;28;19925;-64
2022/07/10 01:11:56;;;;;;;;;;;;;;;17.53;59.59;96904.41;6296773;28;19924;-64
2022/07/10 01:14:59;;;;;;;;;;;;;;;17.59;59.42;96903.00;6296717;28;19930;-64
2022/07/10 01:18:03;;;;;;;;;;;;;;;17.66;59.57;96914.72;6296675;28;19925;-64
2022/07/10 01:21:23;;;;;;;;;;;;;;;17.72;59.33;96919.50;6296661;28;19924;-65
2022/07/10 01:24:26;;;;;;;;;;;;;;;17.80;59.19;96916.97;6296464;28;20389;-65
2022/07/10 01:27:29;;;;;;;;;;;;;;;17.85;59.61;96913.91;6296572;28;19924;-65
2022/07/10 01:30:32;;;;;;;;;;;;;;;17.92;58.93;96915.84;6296331;28;19931;-65
2022/07/10 01:33:36;;;;;;;;;;;;;;;18.00;58.70;96916.94;6296000;28;19928;-65
2022/07/10 01:36:40;;;;;;;;;;;;;;;18.10;58.31;96925.75;6296481;28;19926;-65
2022/07/10 01:39:44;;;;;;;;;;;;;;;18.14;58.81;96919.97;6296006;28;19925;-65
2022/07/10 01:42:48;;;;;;;;;;;;;;;18.20;58.51;96921.22;6295905;28;19924;-64
2022/07/10 01:45:52;;;;;;;;;;;;;;;18.28;58.71;96926.66;6296014;28;19924;-64
2022/07/10 01:48:55;;;;;;;;;;;;;;;18.36;57.91;96917.94;6295668;28;20394;-65
2022/07/10 01:51:59;;;;;;;;;;;;;;;18.42;57.57;96922.66;6296057;28;19925;-66
2022/07/10 01:55:03;;;;;;;;;;;;;;;18.50;57.47;96930.75;6295815;28;19925;-64
2022/07/10 01:58:07;;;;;;;;;;;;;;;18.56;57.88;96924.00;6296062;28;19924;-64
2022/07/10 02:01:10;;;;;;;;;;;;;;;18.64;57.39;96932.09;6295923;28;19920;-65
2022/07/10 02:07:35;;;;;;;;;;;;;;;18.82;57.13;96930.38;6295898;28;20313;-64
2022/07/10 02:10:39;;;;;;;;;;;;;;;18.89;57.36;96929.75;6295587;28;19981;-64
2022/07/10 02:13:42;;;;;;;;;;;;;;;19.00;56.58;96933.06;6295511;28;19920;-63
2022/07/10 02:16:44;;;;;;;;;;;;;;;19.12;56.87;96931.00;6295875;28;20070;-65
2022/07/10 02:19:48;;;;;;;;;;;;;;;19.21;56.46;96932.75;6277929;28;19924;-66
2022/07/10 02:22:51;;;;;;;;;;;;;;;19.28;56.28;96935.66;6295685;28;19924;-65
2022/07/10 02:25:54;;;;;;;;;;;;;;;19.33;56.08;96930.69;6295571;28;19924;-65
2022/07/10 02:28:57;;;;;;;;;;;;;;;19.44;55.80;96942.97;6295739;28;19925;-65
2022/07/10 02:32:01;;;;;;;;;;;;;;;19.53;55.56;96936.69;6295596;28;19924;-65
2022/07/10 02:35:05;;;;;;;;;;;;;;;19.63;55.43;96939.31;6295169;28;19925;-65
2022/07/10 02:38:07;;;;;;;;;;;;;;;19.76;55.23;96936.25;6295459;28;19924;-64
2022/07/10 02:41:11;;;;;;;;;;;;;;;19.86;55.06;96939.69;6277371;28;19925;-65
2022/07/10 02:44:16;;;;;;;;;;;;;;;19.94;54.78;96932.56;6299635;28;19928;-64
2022/07/10 02:47:19;;;;;;;;;;;;;;;20.04;54.42;96931.59;6300312;28;19924;-64
2022/07/10 02:50:22;;;;;;;;;;;;;;;20.11;54.37;96938.00;6300364;28;19924;-64
2022/07/10 02:53:26;;;;;;;;;;;;;;;20.22;54.15;96934.25;6300081;28;20402;-64
2022/07/10 02:56:29;;;;;;;;;;;;;;;20.29;53.83;96932.59;6299995;28;19924;-64
2022/07/10 02:59:33;;;;;;;;;;;;;;;20.37;53.47;96927.31;6299869;28;19924;-64
2022/07/10 03:02:37;;;;;;;;;;;;;;;20.46;53.30;96930.84;6299918;28;19925;-64
2022/07/10 03:05:40;;;;;;;;;;;;;;;20.51;53.09;96934.72;6299579;28;19925;-65
2022/07/10 03:08:43;;;;;;;;;;;;;;;20.63;52.98;96929.94;6299846;28;19978;-64
2022/07/10 03:11:47;;;;;;;;;;;;;;;20.71;52.85;96937.19;6299607;28;19925;-66
2022/07/10 03:14:50;;;;;;;;;;;;;;;20.81;52.45;96932.53;6299548;28;19925;-65
2022/07/10 03:17:54;;;;;;;;;;;;;;;20.91;52.27;96935.91;6298542;28;19928;-65
2022/07/10 03:20:58;;;;;;;;;;;;;;;21.01;52.28;96936.59;6299352;28;20290;-64
2022/07/10 03:24:02;;;;;;;;;;;;;;;21.14;51.91;96940.66;6299409;28;20378;-65
2022/07/10 03:27:06;;;;;;;;;;;;;;;21.25;51.79;96937.66;6299625;28;19924;-64
2022/07/10 03:30:10;;;;;;;;;;;;;;;21.37;51.58;96941.72;6299320;28;19924;-64
2022/07/10 03:33:14;;;;;;;;;;;;;;;21.50;51.53;96942.06;6299212;28;19924;-65
2022/07/10 03:36:20;;;;;;;;;;;;;;;21.64;51.46;96942.41;6298468;28;20235;-64
2022/07/10 03:39:23;;;;;;;;;;;;;;;21.76;51.12;96946.44;6299145;28;19924;-65
2022/07/10 03:42:26;;;;;;;;;;;;;;;21.87;51.01;96951.44;6281183;28;19924;-65
2022/07/10 03:45:30;;;;;;;;;;;;;;;21.94;50.93;96944.44;6298774;28;19925;-65
2022/07/10 03:48:34;;;;;;;;;;;;;;;22.08;50.60;96953.63;6298808;28;20302;-64
2022/07/10 03:51:38;;;;;;;;;;;;;;;22.15;50.43;96956.44;6298571;28;20309;-65
2022/07/10 03:54:41;;;;;;;;;;;;;;;22.28;50.42;96959.47;6297866;28;19924;-64
2022/07/10 03:57:53;;;;;;;;;;;;;;;22.45;50.34;96956.72;6298577;28;19924;-65
2022/07/10 04:00:57;;;;;;;;;;;;;;;22.56;50.14;96964.41;6298439;28;20012;-64
2022/07/10 04:04:00;;;;;;;;;;;;;;;22.73;49.65;96955.31;6298217;28;19925;-65
2022/07/10 04:07:04;;;;;;;;;;;;;;;22.86;49.64;96957.44;6298497;28;19920;-65
2022/07/10 04:10:09;;;;;;;;;;;;;;;22.98;49.37;96952.53;6298182;28;19924;-64
2022/07/10 04:13:13;;;;;;;;;;;;;;;23.08;49.31;96943.28;6298230;28;19924;-65
2022/07/10 04:16:17;;;;;;;;;;;;;;;23.22;48.93;96947.06;6298256;28;19924;-66
2022/07/10 04:19:23;;;;;;;;;;;;;;;23.37;48.66;96940.91;6298107;28;19924;-65
2022/07/10 04:22:27;;;;;;;;;;;;;;;23.54;48.67;96939.78;6298032;28;20429;-65
2022/07/10 04:25:30;;;;;;;;;;;;;;;23.71;48.37;96944.03;6297924;28;19924;-65
2022/07/10 04:28:34;;;;;;;;;;;;;;;23.86;48.13;96946.78;6298107;28;19924;-65
2022/07/10 04:31:38;;;;;;;;;;;;;;;24.01;47.91;96938.78;6297648;28;19924;-65
2022/07/10 04:34:42;;;;;;;;;;;;;;;24.13;47.47;96939.97;6297612;28;20306;-65
2022/07/10 04:37:46;;;;;;;;;;;;;;;24.29;47.46;96938.13;6297622;28;20302;-66
2022/07/10 04:40:49;;;;;;;;;;;;;;;24.46;47.30;96936.13;6297614;28;19925;-65
2022/07/10 04:43:52;;;;;;;;;;;;;;;24.70;46.52;96943.94;6297445;28;19924;-65
2022/07/10 04:46:56;;;;;;;;;;;;;;;25.10;45.83;96942.56;6297451;28;19924;-65
2022/07/10 04:50:00;;;;;;;;;;;;;;;26.95;42.57;96948.91;6297363;28;19924;-65
2022/07/10 04:53:03;;;;;;;;;;;;;;;29.92;37.14;96951.56;6297091;28;19925;-64
2022/07/10 04:56:07;;;;;;;;;;;;;;;32.60;34.27;96962.47;6294960;28;19924;-64
2022/07/10 04:59:10;;;;;;;;;;;;;;;35.16;31.44;96961.69;6297138;28;19924;-65
2022/07/10 05:02:14;;;;;;;;;;;;;;;37.55;28.73;96968.59;6295826;28;19920;-64
2022/07/10 05:05:18;;;;;;;;;;;;;;;40.21;26.83;96970.84;6296670;28;20309;-64
2022/07/10 05:08:21;;;;;;;;;;;;;;;42.57;24.43;96975.94;6294825;28;19920;-64
2022/07/10 05:11:25;;;;;;;;;;;;;;;44.84;22.76;96978.28;6296699;28;20389;-65
2022/07/10 05:14:29;;;;;;;;;;;;;;;46.92;20.63;96972.16;6296745;28;19928;-65
2022/07/10 05:17:33;;;;;;;;;;;;;;;48.75;20.23;96982.88;6296676;28;19924;-65
2022/07/10 05:20:37;;;;;;;;;;;;;;;50.25;19.07;96979.38;6296642;28;19925;-65
2022/07/10 05:23:40;;;;;;;;;;;;;;;51.59;18.59;96987.31;6296565;28;19924;-65
2022/07/10 05:26:44;;;;;;;;;;;;;;;52.77;14.19;96983.44;6296388;28;20305;-65
2022/07/10 05:29:47;;;;;;;;;;;;;;;53.89;14.44;96989.72;6296269;28;20390;-64
2022/07/10 05:32:51;;;;;;;;;;;;;;;54.58;16.64;96984.56;6296285;28;19925;-65
2022/07/10 05:35:54;;;;;;;;;;;;;;;54.58;14.96;96984.56;6296137;28;19925;-66
2022/07/10 05:38:57;;;;;;;;;;;;;;;54.50;14.85;96982.84;6296503;28;20023;-66
2022/07/10 05:42:00;;;;;;;;;;;;;;;55.32;14.75;96989.34;6295924;28;19925;-65
2022/07/10 05:45:04;;;;;;;;;;;;;;;55.85;14.14;96987.28;6295862;28;19943;-65
2022/07/10 05:48:06;;;;;;;;;;;;;;;56.47;12.66;96985.16;6296298;28;19924;-64
2022/07/10 05:51:09;;;;;;;;;;;;;;;57.12;13.08;96979.66;6295601;28;19925;-65
2022/07/10 05:54:12;;;;;;;;;;;;;;;57.81;12.32;96986.09;6295912;28;20424;-64
2022/07/10 05:57:15;;;;;;;;;;;;;;;58.04;11.36;96986.41;6296056;28;19929;-66
2022/07/10 06:00:18;;;;;;;;;;;;;;;57.55;10.52;96985.31;6295874;28;19925;-64
2022/07/10 06:03:21;;;;;;;;;;;;;;;57.64;10.06;96977.22;6295865;28;19979;-65
2022/07/10 06:06:25;;;;;;;;;;;;;;;58.09;10.08;96982.38;6295628;28;19924;-65
2022/07/10 06:09:29;;;;;;;;;;;;;;;58.41;7.65;96980.25;6295770;28;19925;-64
2022/07/10 06:12:32;;;;;;;;;;;;;;;59.53;9.29;96986.72;6307457;28;19925;-66
2022/07/10 06:15:36;;;;;;;;;;;;;;;60.68;7.82;96990.28;6323831;28;19928;-64
2022/07/10 06:18:40;;;;;;;;;;;;;;;61.03;7.64;96994.63;6305491;28;19931;-64
2022/07/10 06:21:47;;;;;;;;;;;;;;;61.59;7.69;96986.38;6327030;28;19904;-64
2022/07/10 06:25:19;;;;;;;;;;;;;;;61.82;7.26;96994.06;6311140;28;19975;-64
2022/07/10 06:28:31;;;;;;;;;;;;;;;62.04;6.30;96991.63;6311008;28;19958;-64
2022/07/10 06:31:51;;;;;;;;;;;;;;;60.92;6.81;96965.53;6312165;28;19908;-65
2022/07/10 06:34:55;;;;;;;;;;;;;;;56.66;10.08;96949.31;6276547;28;20031;-64
2022/07/10 06:37:58;;;;;;;;;;;;;;;55.78;9.41;96940.09;6295363;28;19924;-64
2022/07/10 06:41:02;;;;;;;;;;;;;;;55.50;9.74;96932.25;6295007;28;20468;-64
2022/07/10 06:44:05;;;;;;;;;;;;;;;55.82;8.91;96944.53;6295157;28;19929;-64
2022/07/10 06:50:34;;;;;;;;;;;;;;;54.51;9.71;96928.16;6295144;28;19924;-64
2022/07/10 06:53:36;;;;;;;;;;;;;;;52.58;10.40;96919.66;6295292;28;20432;-65
2022/07/10 06:56:40;;;;;;;;;;;;;;;49.28;11.85;96904.88;6295275;28;19925;-64
2022/07/10 06:59:45;;;;;;;;;;;;;;;45.67;14.27;96898.66;6295256;28;20038;-65
2022/07/10 07:02:51;;;;;;;;;;;;;;;43.51;15.40;96901.84;6295037;28;19924;-65
2022/07/10 07:05:54;;;;;;;;;;;;;;;43.47;15.21;96906.38;6294794;28;20287;-65
2022/07/10 07:09:00;;;;;;;;;;;;;;;44.55;14.19;96913.78;6294735;28;19924;-64
2022/07/10 07:12:06;;;;;;;;;;;;;;;46.45;12.96;96911.69;6295013;28;19931;-65
2022/07/10 07:15:08;;;;;;;;;;;;;;;48.15;11.59;96920.13;6294688;28;19924;-64
2022/07/10 07:18:16;;;;;;;;;;;;;;;46.29;13.06;96903.06;6294876;28;19925;-65
2022/07/10 07:24:40;;;;;;;;;;;;;;;41.23;16.09;96896.13;6294655;28;20017;-65
2022/07/10 07:27:43;;;;;;;;;;;;;;;39.17;17.84;96900.06;6294769;28;20019;-65
2022/07/10 07:30:47;;;;;;;;;;;;;;;37.65;18.91;96899.94;6297553;28;19924;-65
2022/07/10 07:33:49;;;;;;;;;;;;;;;36.78;19.58;96889.50;6299127;28;19924;-64
2022/07/10 07:36:52;;;;;;;;;;;;;;;35.88;20.85;96896.78;6299003;28;19924;-65
2022/07/10 07:39:55;;;;;;;;;;;;;;;37.65;19.20;96898.06;6298704;28;19924;-64
2022/07/10 07:42:59;;;;;;;;;;;;;;;42.74;14.86;96905.38;6298808;28;19924;-65
2022/07/10 07:46:02;;;;;;;;;;;;;;;46.90;12.61;96919.56;6298726;28;19924;-65
2022/07/10 07:49:05;;;;;;;;;;;;;;;50.14;10.87;96927.88;6297723;28;19924;-65
2022/07/10 07:52:09;;;;;;;;;;;;;;;52.44;9.71;96937.88;6297706;28;19920;-65
2022/07/10 07:55:14;;;;;;;;;;;;;;;53.84;8.90;96946.63;6298697;28;20306;-65
2022/07/10 07:58:18;;;;;;;;;;;;;;;53.98;8.36;96945.19;6298708;28;19921;-65
2022/07/10 08:01:22;;;;;;;;;;;;;;;53.21;8.20;96941.66;6298181;28;19925;-65
2022/07/10 08:04:26;;;;;;;;;;;;;;;54.00;7.86;96942.84;6298369;28;19921;-65
2022/07/10 08:07:36;;;;;;;;;;;;;;;54.16;7.43;96937.81;6298220;28;19924;-65
2022/07/10 08:10:39;;;;;;;;;;;;;;;54.70;7.73;96936.41;6298159;28;19924;-64
2022/07/10 08:13:43;;;;;;;;;;;;;;;56.10;7.16;96947.91;6298385;28;20023;-65
2022/07/10 08:16:45;;;;;;;;;;;;;;;57.73;6.41;96952.13;6298138;28;19928;-65
2022/07/10 08:19:49;;;;;;;;;;;;;;;57.66;6.18;96946.47;6298025;28;19924;-65
2022/07/10 08:22:53;;;;;;;;;;;;;;;57.52;6.01;96935.19;6297805;28;19924;-65
2022/07/10 08:25:56;;;;;;;;;;;;;;;57.61;5.61;96938.41;6297845;28;19928;-65
2022/07/10 08:28:59;;;;;;;;;;;;;;;56.43;6.56;96929.88;6298131;28;20316;-64
2022/07/10 08:32:03;;;;;;;;;;;;;;;56.50;6.01;96929.06;6297655;28;20287;-64
2022/07/10 08:35:07;;;;;;;;;;;;;;;55.65;6.32;96916.22;6297525;28;19925;-64
2022/07/10 08:38:10;;;;;;;;;;;;;;;55.00;7.15;96900.84;6297563;28;19924;-65
2022/07/10 08:41:13;;;;;;;;;;;;;;;54.66;6.62;96904.56;6297398;28;19970;-64
2022/07/10 08:44:17;;;;;;;;;;;;;;;55.11;6.88;96911.00;6297545;28;19924;-64
2022/07/10 08:47:21;;;;;;;;;;;;;;;54.94;6.81;96894.75;6297020;28;19925;-64
2022/07/10 08:50:26;;;;;;;;;;;;;;;54.12;7.15;96894.72;6297177;28;19924;-64
2022/07/10 08:53:30;;;;;;;;;;;;;;;53.31;6.80;96893.22;6297078;28;19920;-64
2022/07/10 08:56:34;;;;;;;;;;;;;;;52.45;8.03;96891.75;6297047;28;19924;-64
2022/07/10 08:59:38;;;;;;;;;;;;;;;52.51;7.80;96887.44;6297053;28;19924;-64
2022/07/10 09:02:42;;;;;;;;;;;;;;;53.49;7.33;96882.22;6297014;28;19920;-65
2022/07/10 09:05:45;;;;;;;;;;;;;;;53.33;7.31;96890.84;6296865;28;19924;-65
2022/07/10 09:09:04;;;;;;;;;;;;;;;54.34;6.84;96898.59;6296857;28;19928;-64
2022/07/10 09:12:09;;;;;;;;;;;;;;;55.20;6.89;96899.38;6296669;28;19925;-64
2022/07/10 09:15:17;;;;;;;;;;;;;;;54.37;6.71;96895.00;6296555;28;19928;-64
2022/07/10 09:18:23;;;;;;;;;;;;;;;53.73;7.19;96906.28;6296530;28;19924;-65
2022/07/10 09:21:32;;;;;;;;;;;;;;;54.71;6.60;96898.59;6296381;28;19924;-64
2022/07/10 09:24:37;;;;;;;;;;;;;;;54.81;6.60;96899.84;6296460;28;19931;-64
2022/07/10 09:27:53;;;;;;;;;;;;;;;55.39;6.11;96887.03;6296489;28;20302;-65
2022/07/10 09:30:57;;;;;;;;;;;;;;;54.97;6.31;96893.97;6296233;28;19924;-66
2022/07/10 09:34:01;;;;;;;;;;;;;;;53.88;6.37;96881.97;6296086;28;20250;-65
2022/07/10 09:37:36;;;;;;;;;;;;;;;52.95;6.77;96875.75;6296141;28;19924;-65
2022/07/10 09:40:39;;;;;;;;;;;;;;;51.67;7.10;96864.88;6252149;28;19928;-65
2022/07/10 09:43:43;;;;;;;;;;;;;;;51.23;7.07;96873.50;6295914;28;19925;-64
2022/07/10 09:46:47;;;;;;;;;;;;;;;51.35;7.03;96870.59;6295752;28;19947;-64
2022/07/10 09:49:51;;;;;;;;;;;;;;;52.10;6.63;96877.03;6296113;28;20389;-64
2022/07/10 09:52:55;;;;;;;;;;;;;;;52.67;6.70;96864.03;6295172;28;19921;-65
2022/07/10 09:56:00;;;;;;;;;;;;;;;52.04;6.71;96862.47;6295811;28;19925;-64
2022/07/10 09:59:07;;;;;;;;;;;;;;;50.61;7.32;96853.53;6295980;28;20310;-65
2022/07/10 10:02:10;;;;;;;;;;;;;;;50.16;7.58;96849.97;6295792;28;20015;-64
2022/07/10 10:05:14;;;;;;;;;;;;;;;50.66;7.71;96840.13;6295825;28;19924;-64
2022/07/10 10:08:19;;;;;;;;;;;;;;;51.02;7.65;96845.78;6295575;28;19924;-64
2022/07/10 10:11:26;;;;;;;;;;;;;;;51.36;7.32;96849.81;6295460;28;19920;-64
2022/07/10 10:14:29;;;;;;;;;;;;;;;51.57;7.34;96839.03;6295634;28;19928;-64
2022/07/10 10:17:34;;;;;;;;;;;;;;;51.73;7.20;96847.41;6295526;28;19921;-64
2022/07/10 10:20:39;;;;;;;;;;;;;;;50.60;7.82;96838.75;6295207;28;19921;-64
2022/07/10 10:23:43;;;;;;;;;;;;;;;47.96;9.39;96834.97;6295388;28;20382;-64
2022/07/10 10:26:46;;;;;;;;;;;;;;;47.47;9.57;96829.94;6295240;28;19924;-65
2022/07/10 10:29:49;;;;;;;;;;;;;;;48.34;8.96;96836.69;6277672;28;20394;-64
2022/07/10 10:32:52;;;;;;;;;;;;;;;48.90;8.72;96839.81;6295119;28;20382;-65
2022/07/10 10:35:55;;;;;;;;;;;;;;;49.07;8.20;96832.34;6295529;28;19924;-65
2022/07/10 10:39:21;;;;;;;;;;;;;;;49.29;8.22;96834.66;6295745;28;19924;-66
2022/07/10 10:42:38;;;;;;;;;;;;;;;47.90;9.27;96836.31;6284998;28;19924;-65
2022/07/10 10:45:42;;;;;;;;;;;;;;;47.53;9.49;96833.34;6295032;28;20018;-64
2022/07/10 10:49:04;;;;;;;;;;;;;;;47.21;9.65;96841.25;6295407;28;20297;-64
2022/07/10 10:52:10;;;;;;;;;;;;;;;46.98;9.88;96828.78;6295246;28;19925;-65
2022/07/10 10:55:14;;;;;;;;;;;;;;;46.24;10.12;96835.63;6277414;28;20393;-65
2022/07/10 10:58:19;;;;;;;;;;;;;;;46.02;10.10;96845.81;6294972;28;19924;-64
2022/07/10 11:01:21;;;;;;;;;;;;;;;45.83;10.23;96840.56;6295035;28;19924;-64
2022/07/10 11:04:25;;;;;;;;;;;;;;;45.84;10.20;96836.66;6297579;28;19924;-64
2022/07/10 11:07:47;;;;;;;;;;;;;;;45.83;10.19;96840.56;6299674;28;19932;-65
2022/07/10 11:10:49;;;;;;;;;;;;;;;45.45;10.73;96835.66;6299608;28;19928;-64
2022/07/10 11:13:56;;;;;;;;;;;;;;;44.84;10.80;96843.06;6299364;28;19924;-64
2022/07/10 11:16:59;;;;;;;;;;;;;;;45.09;10.70;96838.72;6281548;28;19924;-65
2022/07/10 11:20:03;;;;;;;;;;;;;;;44.76;11.25;96836.38;6299374;28;20454;-64
2022/07/10 11:23:29;;;;;;;;;;;;;;;43.82;11.78;96834.66;6299440;28;19928;-64
2022/07/10 11:26:38;;;;;;;;;;;;;;;42.93;12.52;96847.19;6262193;28;20390;-64
2022/07/10 11:29:41;;;;;;;;;;;;;;;42.52;12.46;96831.34;6298014;28;19925;-64
2022/07/10 11:32:45;;;;;;;;;;;;;;;42.53;12.46;96831.06;6298975;28;19924;-64
2022/07/10 11:35:50;;;;;;;;;;;;;;;41.86;13.51;96836.94;6299071;28;19924;-64
2022/07/10 11:38:59;;;;;;;;;;;;;;;41.18;13.93;96831.88;6299116;28;19928;-64
2022/07/10 11:42:03;;;;;;;;;;;;;;;41.37;13.72;96829.94;6298932;28;19928;-64
2022/07/10 11:45:41;;;;;;;;;;;;;;;41.20;13.87;96833.22;6298641;28;19924;-64
2022/07/10 11:48:45;;;;;;;;;;;;;;;41.17;13.77;96830.25;6200445;28;19926;-65
2022/07/10 11:51:49;;;;;;;;;;;;;;;40.96;13.97;96829.66;6298671;28;20294;-64
2022/07/10 11:54:53;;;;;;;;;;;;;;;40.22;14.45;96818.13;6298600;28;19925;-64
2022/07/10 11:57:57;;;;;;;;;;;;;;;39.71;14.79;96828.44;6298468;28;19924;-65
2022/07/10 12:01:02;;;;;;;;;;;;;;;39.50;14.79;96826.97;6298383;28;19925;-64
2022/07/10 12:04:06;;;;;;;;;;;;;;;39.65;14.93;96823.25;6298551;28;19924;-64
2022/07/10 12:07:09;;;;;;;;;;;;;;;39.60;14.73;96829.63;6298236;28;19924;-65
2022/07/10 12:10:14;;;;;;;;;;;;;;;38.82;15.33;96833.06;6298836;28;19924;-65
2022/07/10 12:13:17;;;;;;;;;;;;;;;38.21;16.08;96830.47;6298294;28;19925;-65
2022/07/10 12:16:22;;;;;;;;;;;;;;;37.39;17.34;96836.75;6297405;28;19924;-65
2022/07/10 12:19:25;;;;;;;;;;;;;;;36.64;17.46;96828.84;6298269;28;20298;-65
2022/07/10 12:22:29;;;;;;;;;;;;;;;36.34;17.92;96824.00;6298194;28;20394;-65
2022/07/10 12:25:32;;;;;;;;;;;;;;;36.04;18.30;96830.09;6297965;28;20015;-65
2022/07/10 12:28:55;;;;;;;;;;;;;;;36.06;18.83;96825.19;6296733;28;20365;-64
2022/07/10 12:32:02;;;;;;;;;;;;;;;36.34;18.68;96839.59;6297918;28;19920;-65
2022/07/10 12:35:11;;;;;;;;;;;;;;;36.74;17.84;96843.66;6297834;28;20015;-66
2022/07/10 12:38:18;;;;;;;;;;;;;;;37.16;17.84;96834.53;6297611;28;20332;-65
2022/07/10 12:41:24;;;;;;;;;;;;;;;37.84;17.38;96837.09;6279596;28;19924;-65
2022/07/10 12:44:36;;;;;;;;;;;;;;;38.53;16.87;96835.63;6296340;28;19925;-64
2022/07/10 12:47:50;;;;;;;;;;;;;;;38.72;16.79;96836.69;6296265;28;19924;-65
2022/07/10 12:50:54;;;;;;;;;;;;;;;38.44;16.77;96837.31;6297325;28;19924;-65
2022/07/10 12:53:57;;;;;;;;;;;;;;;38.23;16.83;96829.09;6296825;28;19924;-65
2022/07/10 12:57:01;;;;;;;;;;;;;;;38.13;17.17;96821.72;6296746;28;19924;-66
2022/07/10 13:00:05;;;;;;;;;;;;;;;37.89;17.29;96832.41;6295414;28;19924;-66
2022/07/10 13:03:09;;;;;;;;;;;;;;;37.46;18.03;96823.59;6297196;28;20011;-65
2022/07/10 13:06:33;;;;;;;;;;;;;;;36.94;18.02;96827.28;6296881;28;20310;-65
2022/07/10 13:09:39;;;;;;;;;;;;;;;36.45;18.83;96813.09;6297049;28;20287;-65
2022/07/10 13:12:43;;;;;;;;;;;;;;;36.05;18.86;96815.34;6296741;28;19928;-65
2022/07/10 13:15:49;;;;;;;;;;;;;;;35.65;19.07;96832.25;6296601;28;19924;-65
2022/07/10 13:18:54;;;;;;;;;;;;;;;35.29;18.92;96832.69;6296364;28;19924;-64
2022/07/10 13:21:57;;;;;;;;;;;;;;;34.88;19.23;96839.63;6295118;28;19924;-66
2022/07/10 13:25:01;;;;;;;;;;;;;;;34.72;19.14;96838.59;6296165;28;19924;-65
2022/07/10 13:28:06;;;;;;;;;;;;;;;34.72;19.18;96835.06;6295608;28;19924;-66
2022/07/10 13:31:10;;;;;;;;;;;;;;;34.74;19.12;96841.91;6278541;28;19924;-65
2022/07/10 13:34:14;;;;;;;;;;;;;;;34.70;19.08;96837.22;6295742;28;19925;-65
2022/07/10 13:37:18;;;;;;;;;;;;;;;34.78;19.16;96843.06;6294753;28;19930;-64
2022/07/10 13:40:21;;;;;;;;;;;;;;;35.14;18.75;96831.75;6295948;28;19924;-66
2022/07/10 13:43:26;;;;;;;;;;;;;;;35.24;18.47;96838.13;6296012;28;19920;-65
2022/07/10 13:46:30;;;;;;;;;;;;;;;35.17;18.72;96842.97;6295889;28;19978;-64
2022/07/10 13:49:33;;;;;;;;;;;;;;;34.95;18.73;96839.44;6295601;28;19921;-66
2022/07/10 13:52:37;;;;;;;;;;;;;;;34.83;18.73;96840.38;6295669;28;19924;-65
2022/07/10 13:55:41;;;;;;;;;;;;;;;34.75;18.65;96835.38;6295904;28;19920;-64
2022/07/10 13:58:44;;;;;;;;;;;;;;;34.81;18.63;96850.75;6294702;28;19924;-66
2022/07/10 14:01:47;;;;;;;;;;;;;;;34.69;18.81;96852.78;6295810;28;20309;-66
2022/07/10 14:04:51;;;;;;;;;;;;;;;34.09;19.22;96856.28;6295971;28;19962;-65
2022/07/10 14:07:55;;;;;;;;;;;;;;;33.64;19.34;96862.63;6295753;28;19924;-66
2022/07/10 14:10:59;;;;;;;;;;;;;;;33.23;19.31;96851.78;6295493;28;19925;-66
2022/07/10 14:14:02;;;;;;;;;;;;;;;32.85;19.25;96853.19;6295416;28;19925;-64
2022/07/10 14:17:04;;;;;;;;;;;;;;;32.56;19.37;96851.53;6295605;28;19924;-65
2022/07/10 14:20:07;;;;;;;;;;;;;;;32.31;19.20;96843.59;6294011;28;19925;-65
2022/07/10 14:23:10;;;;;;;;;;;;;;;32.08;19.35;96844.44;6295576;28;20757;-65
2022/07/10 14:26:13;;;;;;;;;;;;;;;31.77;19.59;96843.66;6295345;28;19924;-65
2022/07/10 14:29:17;;;;;;;;;;;;;;;31.47;19.67;96839.13;6295218;28;19924;-65
2022/07/10 14:32:20;;;;;;;;;;;;;;;31.35;20.13;96840.13;6295158;28;19928;-66
2022/07/10 14:35:24;;;;;;;;;;;;;;;31.26;20.02;96851.31;6295072;28;19924;-66
2022/07/10 14:38:27;;;;;;;;;;;;;;;31.17;20.55;96855.44;6295997;28;19924;-65
2022/07/10 14:41:32;;;;;;;;;;;;;;;31.12;20.37;96859.91;6300275;28;19924;-65
2022/07/10 14:44:35;;;;;;;;;;;;;;;31.01;20.58;96862.34;6300069;28;19920;-65
2022/07/10 14:47:39;;;;;;;;;;;;;;;30.89;21.38;96866.91;6299512;28;19924;-65
2022/07/10 14:50:42;;;;;;;;;;;;;;;30.65;22.35;96871.31;6300053;28;20266;-67
2022/07/10 14:53:47;;;;;;;;;;;;;;;30.36;23.18;96876.44;6299806;28;19920;-66
2022/07/10 14:56:51;;;;;;;;;;;;;;;30.15;24.29;96871.44;6299595;28;19925;-65
2022/07/10 14:59:55;;;;;;;;;;;;;;;29.85;24.67;96874.00;6299743;28;20321;-66
2022/07/10 15:02:59;;;;;;;;;;;;;;;29.62;25.04;96877.28;6299693;28;20305;-65
2022/07/10 15:06:03;;;;;;;;;;;;;;;29.49;25.25;96881.72;6299591;28;19924;-65
2022/07/10 15:09:06;;;;;;;;;;;;;;;29.39;25.77;96881.38;6299795;28;19924;-66
2022/07/10 15:12:11;;;;;;;;;;;;;;;29.23;26.22;96876.47;6299393;28;19924;-66
2022/07/10 15:15:14;;;;;;;;;;;;;;;29.19;26.72;96883.41;6299340;28;20457;-65
2022/07/10 15:18:16;;;;;;;;;;;;;;;29.23;26.85;96887.31;6281358;28;19925;-65
2022/07/10 15:21:20;;;;;;;;;;;;;;;29.01;27.24;96889.47;6299427;28;19924;-66
2022/07/10 15:24:23;;;;;;;;;;;;;;;28.80;28.17;96883.31;6299352;28;19925;-65
2022/07/10 15:27:27;;;;;;;;;;;;;;;28.57;28.38;96883.84;6299358;28;19925;-66
2022/07/10 15:30:31;;;;;;;;;;;;;;;28.39;28.52;96884.47;6299230;28;19924;-66
2022/07/10 15:33:36;;;;;;;;;;;;;;;28.14;29.38;96880.78;6280934;28;19925;-65
2022/07/10 15:36:40;;;;;;;;;;;;;;;27.90;29.75;96884.94;6298471;28;19924;-65
2022/07/10 15:39:44;;;;;;;;;;;;;;;27.67;30.49;96882.63;6298509;28;19924;-65
2022/07/10 15:42:48;;;;;;;;;;;;;;;27.44;30.57;96899.25;6298695;28;20305;-66
2022/07/10 15:45:51;;;;;;;;;;;;;;;27.31;31.26;96889.22;6298805;28;19948;-65
2022/07/10 15:48:55;;;;;;;;;;;;;;;27.18;31.46;96906.25;6298860;28;19946;-66
2022/07/10 15:52:02;;;;;;;;;;;;;;;27.04;32.48;96899.94;6297819;28;19920;-65
2022/07/10 15:55:05;;;;;;;;;;;;;;;26.86;32.50;96908.63;6298676;28;20298;-65
2022/07/10 15:58:10;;;;;;;;;;;;;;;26.69;32.65;96909.97;6298562;28;19924;-65
2022/07/10 16:01:15;;;;;;;;;;;;;;;26.54;32.84;96914.69;6298495;28;19932;-65
2022/07/10 16:04:18;;;;;;;;;;;;;;;26.39;32.99;96918.28;6298279;28;19924;-65
2022/07/10 16:07:23;;;;;;;;;;;;;;;26.27;33.78;96919.88;6298270;28;19924;-65
2022/07/10 16:10:26;;;;;;;;;;;;;;;26.17;34.00;96930.19;6298301;28;19924;-65
2022/07/10 16:13:33;;;;;;;;;;;;;;;26.01;34.25;96935.84;6298072;28;19920;-65